createdAt,value
2022-10-22T00:00:18.864Z,97508.00
2022-10-22T00:02:46.408Z,97513.91
2022-10-22T00:05:13.886Z,97504.94
2022-10-22T00:07:41.700Z,97500.31
2022-10-22T00:10:11.275Z,97502.41
2022-10-22T00:12:38.783Z,97498.28
2022-10-22T00:15:07.754Z,97505.63
2022-10-22T00:17:35.986Z,97508.91
2022-10-22T00:20:04.380Z,97510.78
2022-10-22T00:22:31.854Z,97512.94
2022-10-22T00:24:59.492Z,97521.59
2022-10-22T00:27:28.307Z,97517.84
2022-10-22T00:29:55.786Z,97519.53
2022-10-22T00:32:23.258Z,97530.69
2022-10-22T00:34:50.754Z,97526.34
2022-10-22T00:37:18.197Z,97528.38
2022-10-22T00:39:45.695Z,97532.81
2022-10-22T00:42:17.550Z,97536.84
2022-10-22T00:45:17.116Z,97532.88
2022-10-22T00:47:50.025Z,97525.63
2022-10-22T00:50:21.902Z,97520.88
2022-10-22T00:52:51.897Z,97533.28
2022-10-22T00:55:24.958Z,97542.34
2022-10-22T00:57:56.222Z,97536.97
2022-10-22T01:00:27.022Z,97530.56
2022-10-22T01:02:56.209Z,97524.44
2022-10-22T01:05:24.226Z,97525.09
2022-10-22T01:07:54.574Z,97519.72
2022-10-22T01:10:34.607Z,97521.81
2022-10-22T01:13:11.001Z,97522.41
2022-10-22T01:15:47.610Z,97521.00
2022-10-22T01:18:22.113Z,97514.53
2022-10-22T01:21:05.060Z,97514.53
2022-10-22T01:23:59.647Z,97517.47
2022-10-22T01:26:38.818Z,97513.78
2022-10-22T01:29:13.926Z,97513.56
2022-10-22T01:31:47.931Z,97511.91
2022-10-22T01:34:20.418Z,97503.44
2022-10-22T01:36:49.146Z,97505.09
2022-10-22T01:39:17.965Z,97496.59
2022-10-22T01:41:46.603Z,97491.66
2022-10-22T01:44:26.994Z,97495.16
2022-10-22T01:47:03.786Z,97494.34
2022-10-22T01:49:42.532Z,97489.41
2022-10-22T01:52:21.041Z,97485.03
2022-10-22T01:54:58.022Z,97480.53
2022-10-22T01:57:34.958Z,97470.13
2022-10-22T02:00:09.339Z,97463.13
2022-10-22T02:02:45.053Z,97467.22
2022-10-22T02:05:17.591Z,97465.19
2022-10-22T02:07:49.785Z,97473.28
2022-10-22T02:10:19.805Z,97463.78
2022-10-22T02:12:51.386Z,97458.41
2022-10-22T02:15:22.706Z,97477.41
2022-10-22T02:17:52.158Z,97464.81
2022-10-22T02:20:23.690Z,97466.69
2022-10-22T02:22:51.486Z,97470.63
2022-10-22T02:25:19.133Z,97475.84
2022-10-22T02:27:50.374Z,97488.72
2022-10-22T02:30:22.303Z,97477.13
2022-10-22T02:32:54.802Z,97481.03
2022-10-22T02:35:24.201Z,97488.66
2022-10-22T02:37:53.721Z,97494.50
2022-10-22T02:40:21.629Z,97488.47
2022-10-22T02:42:51.440Z,97503.16
2022-10-22T02:45:21.445Z,97483.72
2022-10-22T02:47:49.040Z,97491.34
2022-10-22T02:50:16.786Z,97493.25
2022-10-22T02:52:44.257Z,97494.88
2022-10-22T02:55:11.789Z,97495.69
2022-10-22T02:57:39.497Z,97498.19
2022-10-22T03:00:09.166Z,97496.59
2022-10-22T03:02:38.177Z,97500.50
2022-10-22T03:05:06.604Z,97491.22
2022-10-22T03:07:34.349Z,97481.78
2022-10-22T03:10:01.820Z,97486.91
2022-10-22T03:12:29.292Z,97492.19
2022-10-22T03:14:56.732Z,97492.25
2022-10-22T03:17:24.183Z,97490.56
2022-10-22T03:19:52.982Z,97482.38
2022-10-22T03:22:23.838Z,97490.97
2022-10-22T03:24:55.312Z,97491.22
2022-10-22T03:27:23.753Z,97493.91
2022-10-22T03:29:53.446Z,97507.97
2022-10-22T03:32:20.940Z,97513.59
2022-10-22T03:34:48.726Z,97511.72
2022-10-22T03:37:18.078Z,97521.66
2022-10-22T03:39:46.137Z,97524.34
2022-10-22T03:42:14.204Z,97531.41
2022-10-22T03:44:41.994Z,97534.47
2022-10-22T03:47:09.827Z,97544.47
2022-10-22T03:49:37.477Z,97552.97
2022-10-22T03:52:08.848Z,97556.06
2022-10-22T03:57:11.706Z,97554.63
2022-10-22T03:59:41.603Z,97562.66
2022-10-22T04:02:09.940Z,97561.47
2022-10-22T04:04:38.274Z,97579.44
2022-10-22T04:07:06.265Z,97583.81
2022-10-22T04:09:34.542Z,97586.88
2022-10-22T04:12:05.401Z,97589.19
2022-10-22T04:14:32.870Z,97582.91
2022-10-22T04:17:00.353Z,97582.56
2022-10-22T04:19:27.836Z,97589.38
2022-10-22T04:21:55.289Z,97595.78
2022-10-22T04:24:22.769Z,97602.44
2022-10-22T04:26:50.225Z,97590.59
2022-10-22T04:29:19.009Z,97592.94
2022-10-22T04:31:46.462Z,97596.63
2022-10-22T04:34:13.949Z,97608.47
2022-10-22T04:36:41.389Z,97603.91
2022-10-22T04:39:08.969Z,97599.94
2022-10-22T04:41:38.241Z,97603.84
2022-10-22T04:44:08.147Z,97618.59
2022-10-22T04:46:39.749Z,97611.16
2022-10-22T04:49:07.213Z,97610.72
2022-10-22T04:51:34.664Z,97609.47
2022-10-22T04:54:02.444Z,97609.88
2022-10-22T04:56:31.385Z,97607.59
2022-10-22T04:59:00.415Z,97608.41
2022-10-22T05:01:29.773Z,97595.19
2022-10-22T05:04:00.983Z,97602.47
2022-10-22T05:06:29.791Z,97601.66
2022-10-22T05:08:58.877Z,97592.94
2022-10-22T05:11:28.777Z,97612.59
2022-10-22T05:13:56.944Z,97613.84
2022-10-22T05:16:24.480Z,97609.03
2022-10-22T05:18:53.222Z,97609.88
2022-10-22T05:21:22.529Z,97609.09
2022-10-22T05:23:51.299Z,97611.94
2022-10-22T05:26:20.921Z,97613.03
2022-10-22T05:28:49.289Z,97618.22
2022-10-22T05:31:18.087Z,97616.91
2022-10-22T05:33:46.008Z,97625.88
2022-10-22T05:36:16.617Z,97620.13
2022-10-22T05:38:45.672Z,97618.00
2022-10-22T05:41:14.696Z,97624.66
2022-10-22T05:43:42.160Z,97626.53
2022-10-22T05:46:11.677Z,97635.44
2022-10-22T05:48:40.196Z,97633.41
2022-10-22T05:51:08.937Z,97635.69
2022-10-22T05:53:38.214Z,97650.94
2022-10-22T05:56:09.468Z,97652.00
2022-10-22T05:58:37.519Z,97660.91
2022-10-22T06:01:06.504Z,97656.72
2022-10-22T06:03:34.233Z,97666.41
2022-10-22T06:06:03.802Z,97676.13
2022-10-22T06:08:32.001Z,97686.28
2022-10-22T06:10:59.698Z,97692.53
2022-10-22T06:13:28.477Z,97706.59
2022-10-22T06:15:56.035Z,97710.09
2022-10-22T06:18:23.472Z,97716.72
2022-10-22T06:20:50.957Z,97716.94
2022-10-22T06:23:18.397Z,97721.91
2022-10-22T06:25:45.885Z,97728.31
2022-10-22T06:28:13.360Z,97734.72
2022-10-22T06:30:44.344Z,97741.31
2022-10-22T06:33:14.015Z,97738.03
2022-10-22T06:35:41.492Z,97735.97
2022-10-22T06:38:08.996Z,97740.09
2022-10-22T06:40:36.440Z,97743.81
2022-10-22T06:43:03.920Z,97747.13
2022-10-22T06:45:31.388Z,97746.91
2022-10-22T06:48:00.225Z,97745.47
2022-10-22T06:50:27.737Z,97744.66
2022-10-22T06:52:55.192Z,97757.06
2022-10-22T06:55:22.646Z,97752.69
2022-10-22T06:57:50.130Z,97759.34
2022-10-22T07:00:17.779Z,97758.69
2022-10-22T07:02:45.245Z,97769.28
2022-10-22T07:05:14.071Z,97774.88
2022-10-22T07:07:41.534Z,97780.84
2022-10-22T07:10:09.889Z,97785.38
2022-10-22T07:12:37.332Z,97780.22
2022-10-22T07:15:05.276Z,97786.41
2022-10-22T07:17:32.786Z,97783.31
2022-10-22T07:20:00.305Z,97791.38
2022-10-22T07:22:29.102Z,97798.56
2022-10-22T07:24:56.544Z,97803.38
2022-10-22T07:27:24.015Z,97806.91
2022-10-22T07:29:51.468Z,97812.50
2022-10-22T07:32:23.593Z,97812.69
2022-10-22T07:34:51.318Z,97818.50
2022-10-22T07:37:21.793Z,97811.06
2022-10-22T07:39:50.704Z,97820.00
2022-10-22T07:42:18.230Z,97820.19
2022-10-22T07:44:45.708Z,97818.75
2022-10-22T07:47:13.189Z,97819.56
2022-10-22T07:49:40.660Z,97814.59
2022-10-22T07:52:08.631Z,97810.66
2022-10-22T07:54:36.120Z,97812.72
2022-10-22T07:57:04.928Z,97823.91
2022-10-22T07:59:32.377Z,97825.53
2022-10-22T08:02:00.516Z,97834.03
2022-10-22T08:04:28.789Z,97822.66
2022-10-22T08:06:57.040Z,97830.31
2022-10-22T08:09:25.232Z,97831.13
2022-10-22T08:11:55.022Z,97836.50
2022-10-22T08:14:25.293Z,97841.88
2022-10-22T08:16:53.436Z,97852.84
2022-10-22T08:19:21.889Z,97855.75
2022-10-22T08:21:50.940Z,97849.94
2022-10-22T08:24:20.892Z,97851.81
2022-10-22T08:26:49.140Z,97847.88
2022-10-22T08:29:17.796Z,97844.75
2022-10-22T08:31:49.304Z,97843.50
2022-10-22T08:34:20.672Z,97846.34
2022-10-22T08:36:48.441Z,97839.13
2022-10-22T08:39:18.910Z,97844.28
2022-10-22T08:41:54.218Z,97846.47
2022-10-22T08:44:38.741Z,97844.03
2022-10-22T08:47:25.912Z,97848.16
2022-10-22T08:49:54.747Z,97845.25
2022-10-22T08:52:22.909Z,97850.41
2022-10-22T08:54:54.139Z,97860.94
2022-10-22T08:57:40.800Z,97859.47
2022-10-22T09:00:14.490Z,97858.88
2022-10-22T09:02:59.477Z,97863.63
2022-10-22T09:05:41.185Z,97870.00
2022-10-22T09:08:12.277Z,97871.03
2022-10-22T09:10:45.250Z,97862.94
2022-10-22T09:13:15.005Z,97871.47
2022-10-22T09:15:44.990Z,97861.47
2022-10-22T09:18:28.844Z,97866.69
2022-10-22T09:20:59.168Z,97864.31
2022-10-22T09:23:34.485Z,97869.81
2022-10-22T09:26:02.290Z,97859.59
2022-10-22T09:28:29.791Z,97862.59
2022-10-22T09:33:28.068Z,97881.22
2022-10-22T09:35:57.939Z,97881.56
2022-10-22T09:38:27.776Z,97879.16
2022-10-22T09:40:57.380Z,97890.38
2022-10-22T09:43:25.516Z,97889.25
2022-10-22T09:45:57.832Z,97887.22
2022-10-22T09:48:34.272Z,97890.38
2022-10-22T09:51:07.310Z,97882.44
2022-10-22T09:53:38.304Z,97897.59
2022-10-22T09:56:10.996Z,97882.91
2022-10-22T09:58:46.278Z,97885.75
2022-10-22T10:01:19.542Z,97889.97
2022-10-22T10:03:49.587Z,97882.94
2022-10-22T10:06:19.789Z,97884.31
2022-10-22T10:08:47.436Z,97884.75
2022-10-22T10:11:28.070Z,97890.72
2022-10-22T10:14:09.501Z,97893.19
2022-10-22T10:16:49.664Z,97886.97
2022-10-22T10:19:31.360Z,97889.63
2022-10-22T10:22:08.604Z,97884.50
2022-10-22T10:24:51.320Z,97893.16
2022-10-22T10:27:26.608Z,97896.16
2022-10-22T10:29:58.952Z,97891.00
2022-10-22T10:32:40.291Z,97894.56
2022-10-22T10:35:22.121Z,97887.00
2022-10-22T10:38:02.312Z,97890.53
2022-10-22T10:40:35.876Z,97889.22
2022-10-22T10:43:11.059Z,97887.41
2022-10-22T10:45:48.345Z,97898.13
2022-10-22T10:48:32.203Z,97899.72
2022-10-22T10:51:08.626Z,97906.53
2022-10-22T10:53:46.835Z,97910.13
2022-10-22T10:56:35.605Z,97915.03
2022-10-22T10:59:17.992Z,97911.81
2022-10-22T11:02:00.484Z,97914.47
2022-10-22T11:04:57.711Z,97910.41
2022-10-22T11:07:34.625Z,97916.69
2022-10-22T11:10:10.799Z,97913.19
2022-10-22T11:12:43.419Z,97909.78
2022-10-22T11:15:23.280Z,97906.59
2022-10-22T11:17:53.631Z,97912.63
2022-10-22T11:20:26.545Z,97910.28
2022-10-22T11:23:18.832Z,97909.69
2022-10-22T11:25:49.777Z,97917.25
2022-10-22T11:28:22.485Z,97913.81
2022-10-22T11:30:58.071Z,97902.97
2022-10-22T11:33:30.155Z,97906.53
2022-10-22T11:36:00.535Z,97899.13
2022-10-22T11:38:32.805Z,97894.06
2022-10-22T11:41:03.524Z,97904.91
2022-10-22T11:43:33.481Z,97899.13
2022-10-22T11:46:26.501Z,97894.66
2022-10-22T11:49:06.855Z,97905.69
2022-10-22T11:51:36.563Z,97908.47
2022-10-22T11:54:30.414Z,97905.28
2022-10-22T11:57:18.812Z,97903.00
2022-10-22T11:59:51.221Z,97909.63
2022-10-22T12:02:32.110Z,97903.56
2022-10-22T12:05:42.795Z,97902.19
2022-10-22T12:08:27.255Z,97906.41
2022-10-22T12:11:05.208Z,97899.06
2022-10-22T12:13:35.172Z,97903.34
2022-10-22T12:16:04.876Z,97894.84
2022-10-22T12:18:43.615Z,97900.19
2022-10-22T12:21:13.499Z,97896.31
2022-10-22T12:23:41.039Z,97884.88
2022-10-22T12:26:24.721Z,97887.34
2022-10-22T12:28:52.285Z,97886.88
2022-10-22T12:31:19.760Z,97891.31
2022-10-22T12:33:47.200Z,97888.19
2022-10-22T12:36:19.315Z,97885.91
2022-10-22T12:38:48.089Z,97889.44
2022-10-22T12:41:15.936Z,97884.06
2022-10-22T12:43:45.399Z,97888.47
2022-10-22T12:46:14.471Z,97884.84
2022-10-22T12:48:44.171Z,97883.13
2022-10-22T12:51:17.240Z,97885.44
2022-10-22T12:53:47.779Z,97891.63
2022-10-22T12:56:17.264Z,97876.03
2022-10-22T12:58:49.154Z,97880.38
2022-10-22T13:01:19.182Z,97883.78
2022-10-22T13:03:49.811Z,97883.75
2022-10-22T13:06:26.100Z,97890.06
2022-10-22T13:09:04.107Z,97890.50
2022-10-22T13:11:33.232Z,97890.94
2022-10-22T13:14:05.535Z,97884.03
2022-10-22T13:16:33.175Z,97888.53
2022-10-22T13:19:00.723Z,97882.00
2022-10-22T13:21:33.976Z,97882.50
2022-10-22T13:24:03.933Z,97883.97
2022-10-22T13:26:34.615Z,97884.44
2022-10-22T13:29:10.235Z,97889.00
2022-10-22T13:31:38.163Z,97880.63
2022-10-22T13:34:11.788Z,97881.47
2022-10-22T13:36:41.435Z,97879.44
2022-10-22T13:39:17.108Z,97883.81
2022-10-22T13:41:44.647Z,97885.56
2022-10-22T13:44:13.459Z,97881.25
2022-10-22T13:46:42.829Z,97883.59
2022-10-22T13:49:16.512Z,97887.22
2022-10-22T13:51:45.023Z,97884.16
2022-10-22T13:54:17.365Z,97887.81
2022-10-22T13:56:44.807Z,97882.75
2022-10-22T13:59:15.378Z,97884.50
2022-10-22T14:01:45.883Z,97884.13
2022-10-22T14:04:14.922Z,97883.09
2022-10-22T14:06:42.420Z,97878.63
2022-10-22T14:09:15.717Z,97881.56
2022-10-22T14:11:43.296Z,97878.41
2022-10-22T14:14:14.080Z,97882.81
2022-10-22T14:16:42.983Z,97877.53
2022-10-22T14:19:15.352Z,97876.34
2022-10-22T14:21:42.863Z,97879.44
2022-10-22T14:24:13.029Z,97871.09
2022-10-22T14:26:41.372Z,97876.22
2022-10-22T14:29:10.296Z,97878.91
2022-10-22T14:34:13.664Z,97880.75
2022-10-22T14:36:43.430Z,97889.66
2022-10-22T14:39:10.906Z,97886.16
2022-10-22T14:41:38.609Z,97884.38
2022-10-22T14:44:06.273Z,97884.81
2022-10-22T14:46:33.792Z,97893.84
2022-10-22T14:49:01.237Z,97892.44
2022-10-22T14:51:30.043Z,97889.13
2022-10-22T14:53:57.498Z,97890.94
2022-10-22T14:56:25.027Z,97894.91
2022-10-22T14:58:53.629Z,97894.63
2022-10-22T15:01:21.448Z,97895.47
2022-10-22T15:03:48.989Z,97899.38
2022-10-22T15:06:16.474Z,97890.13
2022-10-22T15:08:45.618Z,97898.16
2022-10-22T15:11:13.807Z,97904.09
2022-10-22T15:13:42.029Z,97914.78
2022-10-22T15:16:11.510Z,97912.91
2022-10-22T15:18:39.544Z,97906.28
2022-10-22T15:21:08.929Z,97907.28
2022-10-22T15:23:39.068Z,97907.88
2022-10-22T15:26:09.477Z,97907.16
2022-10-22T15:28:37.839Z,97913.97
2022-10-22T15:31:05.460Z,97915.41
2022-10-22T15:33:33.555Z,97923.34
2022-10-22T15:36:10.981Z,97925.69
2022-10-22T15:38:38.456Z,97918.59
2022-10-22T15:41:09.874Z,97924.25
2022-10-22T15:43:38.753Z,97922.69
2022-10-22T15:46:12.396Z,97924.38
2022-10-22T15:48:39.895Z,97937.22
2022-10-22T15:51:11.768Z,97935.56
2022-10-22T15:53:39.293Z,97936.91
2022-10-22T15:56:07.335Z,97945.75
2022-10-22T15:58:35.067Z,97945.69
2022-10-22T16:01:08.918Z,97947.84
2022-10-22T16:03:36.984Z,97958.41
2022-10-22T16:06:05.432Z,97963.31
2022-10-22T16:08:32.935Z,97963.75
2022-10-22T16:11:00.820Z,97961.53
2022-10-22T16:13:28.292Z,97963.19
2022-10-22T16:15:55.812Z,97967.69
2022-10-22T16:18:24.610Z,97974.56
2022-10-22T16:20:53.837Z,97970.47
2022-10-22T16:23:21.316Z,97980.03
2022-10-22T16:25:48.792Z,97982.94
2022-10-22T16:28:16.459Z,97975.97
2022-10-22T16:30:43.927Z,97981.50
2022-10-22T16:33:12.456Z,97990.19
2022-10-22T16:35:42.867Z,97993.72
2022-10-22T16:38:12.144Z,97994.50
2022-10-22T16:40:40.362Z,97993.53
2022-10-22T16:43:07.840Z,98011.16
2022-10-22T16:45:35.309Z,98002.03
2022-10-22T16:48:02.788Z,98007.50
2022-10-22T16:50:30.244Z,98010.13
2022-10-22T16:52:59.059Z,98013.09
2022-10-22T16:55:26.511Z,98008.13
2022-10-22T16:57:54.338Z,98016.03
2022-10-22T17:00:21.884Z,98017.91
2022-10-22T17:02:53.913Z,98015.84
2022-10-22T17:05:21.810Z,98022.72
2022-10-22T17:07:50.047Z,98022.13
2022-10-22T17:10:20.237Z,98024.22
2022-10-22T17:12:48.695Z,98016.94
2022-10-22T17:15:16.391Z,98016.75
2022-10-22T17:17:48.172Z,98018.22
2022-10-22T17:20:15.672Z,98018.06
2022-10-22T17:22:43.404Z,98012.69
2022-10-22T17:25:14.076Z,98014.53
2022-10-22T17:27:44.742Z,98019.75
2022-10-22T17:30:17.621Z,98020.19
2022-10-22T17:32:45.157Z,98025.19
2022-10-22T17:35:15.086Z,98027.47
2022-10-22T17:37:43.147Z,98028.94
2022-10-22T17:40:11.295Z,98032.47
2022-10-22T17:42:38.889Z,98027.91
2022-10-22T17:45:08.811Z,98025.63
2022-10-22T17:47:37.240Z,98023.56
2022-10-22T17:50:04.883Z,98025.88
2022-10-22T17:52:32.395Z,98024.63
2022-10-22T17:54:59.883Z,98027.97
2022-10-22T17:57:27.466Z,98032.53
2022-10-22T17:59:55.095Z,98030.06
2022-10-22T18:02:24.036Z,98039.78
2022-10-22T18:04:52.349Z,98036.31
2022-10-22T18:07:20.867Z,98040.25
2022-10-22T18:09:48.667Z,98029.91
2022-10-22T18:12:17.978Z,98039.03
2022-10-22T18:14:46.324Z,98038.81
2022-10-22T18:19:49.039Z,98041.94
2022-10-22T18:22:16.491Z,98038.00
2022-10-22T18:24:43.972Z,98035.75
2022-10-22T18:27:11.463Z,98045.25
2022-10-22T18:29:38.960Z,98042.38
2022-10-22T18:32:12.086Z,98045.91
2022-10-22T18:34:40.843Z,98049.81
2022-10-22T18:37:10.039Z,98046.28
2022-10-22T18:39:37.537Z,98043.63
2022-10-22T18:42:07.014Z,98051.72
2022-10-22T18:44:35.712Z,98048.38
2022-10-22T18:47:03.230Z,98053.78
2022-10-22T18:49:30.748Z,98054.22
2022-10-22T18:51:58.228Z,98047.78
2022-10-22T18:54:27.287Z,98051.72
2022-10-22T18:56:59.359Z,98049.66
2022-10-22T18:59:29.809Z,98053.38
2022-10-22T19:01:59.384Z,98048.81
2022-10-22T19:04:30.819Z,98057.31
2022-10-22T19:06:58.473Z,98063.31
2022-10-22T19:09:27.459Z,98055.06
2022-10-22T19:11:54.972Z,98056.28
2022-10-22T19:14:22.443Z,98055.88
2022-10-22T19:16:50.278Z,98051.09
2022-10-22T19:19:20.330Z,98059.00
2022-10-22T19:21:48.767Z,98051.72
2022-10-22T19:24:16.825Z,98048.81
2022-10-22T19:26:46.341Z,98054.84
2022-10-22T19:29:16.007Z,98053.59
2022-10-22T19:31:44.179Z,98049.44
2022-10-22T19:34:11.848Z,98051.94
2022-10-22T19:36:39.487Z,98055.25
2022-10-22T19:39:07.600Z,98049.88
2022-10-22T19:41:35.368Z,98056.06
2022-10-22T19:44:04.331Z,98055.84
2022-10-22T19:46:32.647Z,98054.41
2022-10-22T19:49:00.651Z,98053.78
2022-10-22T19:51:30.718Z,98053.97
2022-10-22T19:53:59.439Z,98046.75
2022-10-22T19:56:27.597Z,98050.25
2022-10-22T19:58:55.083Z,98054.78
2022-10-22T20:01:24.417Z,98050.44
2022-10-22T20:03:52.049Z,98053.31
2022-10-22T20:06:20.464Z,98054.59
2022-10-22T20:08:50.035Z,98053.94
2022-10-22T20:11:23.822Z,98059.34
2022-10-22T20:13:52.621Z,98062.84
2022-10-22T20:16:22.888Z,98059.94
2022-10-22T20:18:51.803Z,98059.94
2022-10-22T20:21:20.264Z,98055.19
2022-10-22T20:23:48.185Z,98060.16
2022-10-22T20:26:15.688Z,98051.88
2022-10-22T20:28:43.311Z,98051.63
2022-10-22T20:31:11.923Z,98056.81
2022-10-22T20:33:39.895Z,98051.44
2022-10-22T20:36:19.819Z,98056.00
2022-10-22T20:38:48.221Z,98055.16
2022-10-22T20:41:17.980Z,98060.53
2022-10-22T20:43:45.980Z,98055.16
2022-10-22T20:46:18.483Z,98051.22
2022-10-22T20:48:46.200Z,98055.94
2022-10-22T20:51:15.096Z,98055.34
2022-10-22T20:53:42.995Z,98054.09
2022-10-22T20:56:11.007Z,98060.91
2022-10-22T20:58:39.126Z,98065.25
2022-10-22T21:01:11.967Z,98060.72
2022-10-22T21:03:39.606Z,98055.72
2022-10-22T21:06:07.491Z,98057.56
2022-10-22T21:08:36.336Z,98061.94
2022-10-22T21:11:03.827Z,98061.69
2022-10-22T21:13:32.227Z,98057.09
2022-10-22T21:15:59.982Z,98059.22
2022-10-22T21:18:27.471Z,98066.28
2022-10-22T21:20:54.943Z,98062.06
2022-10-22T21:23:22.455Z,98067.47
2022-10-22T21:25:56.635Z,98060.59
2022-10-22T21:28:24.462Z,98069.09
2022-10-22T21:30:52.062Z,98068.69
2022-10-22T21:33:19.658Z,98065.16
2022-10-22T21:35:55.251Z,98069.28
2022-10-22T21:38:24.143Z,98066.38
2022-10-22T21:40:51.666Z,98063.06
2022-10-22T21:43:21.138Z,98061.56
2022-10-22T21:45:48.979Z,98061.56
2022-10-22T21:48:16.549Z,98060.31
2022-10-22T21:50:45.675Z,98065.31
2022-10-22T21:53:13.230Z,98061.81
2022-10-22T21:55:41.490Z,98065.09
2022-10-22T21:58:09.563Z,98064.91
2022-10-22T22:00:38.407Z,98062.81
2022-10-22T22:03:07.471Z,98067.97
2022-10-22T22:05:35.041Z,98063.38
2022-10-22T22:08:02.607Z,98063.81
2022-10-22T22:10:30.924Z,98064.84
2022-10-22T22:12:58.430Z,98064.00
2022-10-22T22:15:25.911Z,98063.81
2022-10-22T22:17:54.751Z,98060.47
2022-10-22T22:20:22.226Z,98062.97
2022-10-22T22:22:49.943Z,98056.09
2022-10-22T22:25:17.438Z,98050.53
2022-10-22T22:27:45.186Z,98047.81
2022-10-22T22:30:13.188Z,98050.31
2022-10-22T22:32:40.687Z,98043.47
2022-10-22T22:35:09.699Z,98042.44
2022-10-22T22:37:37.194Z,98044.91
2022-10-22T22:40:05.144Z,98041.19
2022-10-22T22:42:32.695Z,98044.50
2022-10-22T22:45:00.249Z,98054.41
2022-10-22T22:47:27.732Z,98037.66
2022-10-22T22:49:55.183Z,98041.19
2022-10-22T22:52:23.971Z,98028.53
2022-10-22T22:54:51.479Z,98027.31
2022-10-22T22:57:19.183Z,98022.97
2022-10-22T22:59:46.673Z,98019.75
2022-10-22T23:02:14.207Z,98018.78
2022-10-22T23:04:41.742Z,98009.47
2022-10-22T23:07:09.271Z,98010.88
2022-10-22T23:09:38.148Z,98009.88
2022-10-22T23:12:06.418Z,98008.44
2022-10-22T23:14:35.951Z,98012.38
2022-10-22T23:17:06.590Z,98012.97
2022-10-22T23:19:34.298Z,98011.06
2022-10-22T23:22:01.870Z,98005.69
2022-10-22T23:24:30.598Z,98009.63
2022-10-22T23:27:02.695Z,98014.00
2022-10-22T23:29:32.395Z,98011.94
2022-10-22T23:32:02.075Z,98008.75
2022-10-22T23:34:30.662Z,98012.88
2022-10-22T23:36:59.058Z,98009.19
2022-10-22T23:39:28.770Z,98009.41
2022-10-22T23:41:56.960Z,98018.75
2022-10-22T23:44:26.657Z,98015.19
2022-10-22T23:46:55.107Z,98023.44
2022-10-22T23:49:22.690Z,98026.31
2022-10-22T23:51:50.153Z,98026.53
2022-10-22T23:54:18.755Z,98026.75
2022-10-22T23:56:46.128Z,98027.38
